Time;durP1;ratioP1;P1;durP2;ratioP2;P2;SDS_P1;SDS_P2;PMS_P1;PMS_P2;Temp;Humidity;BMP_temperature;BMP_pressure;BME280_temperature;BME280_humidity;BME280_pressure;Samples;Min_cycle;Max_cycle;Signal;HPM_P1;HPM_P2
2023/09/04 00:01:32;;;;;;;3.65;1.90;;;;;;;17.90;100.00;97468.84;5053486;28;20080;-72
2023/09/04 00:03:58;;;;;;;4.38;1.70;;;;;;;17.85;100.00;97471.97;5059861;28;20501;-73
2023/09/04 00:06:24;;;;;;;2.90;1.70;;;;;;;17.87;100.00;97470.41;5040452;28;20131;-73
2023/09/04 00:08:50;;;;;;;2.28;1.70;;;;;;;17.81;100.00;97463.66;5061092;28;20040;-73
2023/09/04 00:11:15;;;;;;;2.55;1.85;;;;;;;17.77;100.00;97471.16;5055768;28;20116;-72
2023/09/04 00:13:41;;;;;;;2.50;1.77;;;;;;;17.76;100.00;97464.06;5044018;28;20037;-70
2023/09/04 00:16:06;;;;;;;3.03;1.90;;;;;;;17.66;100.00;97439.91;5040475;28;20088;-70
2023/09/04 00:18:31;;;;;;;3.08;1.90;;;;;;;17.65;100.00;97454.97;5052304;28;20044;-71
2023/09/04 00:20:57;;;;;;;2.97;1.92;;;;;;;17.54;100.00;97455.72;5061944;28;20044;-70
2023/09/04 00:23:22;;;;;;;2.63;1.75;;;;;;;17.55;100.00;97448.22;5039302;28;20379;-70
2023/09/04 00:25:48;;;;;;;3.58;2.10;;;;;;;17.56;100.00;97441.50;5043500;28;20041;-70
2023/09/04 00:28:13;;;;;;;2.92;2.17;;;;;;;17.53;100.00;97434.75;5039613;28;20040;-69
2023/09/04 00:30:39;;;;;;;3.03;1.83;;;;;;;17.61;100.00;97438.34;5043797;28;20141;-69
2023/09/04 00:33:04;;;;;;;4.68;2.10;;;;;;;17.65;100.00;97441.09;5040635;28;20040;-68
2023/09/04 00:35:30;;;;;;;3.47;1.70;;;;;;;17.58;100.00;97437.13;5043153;28;20044;-69
2023/09/04 00:37:55;;;;;;;3.63;2.08;;;;;;;17.53;100.00;97429.22;5042995;28;20518;-69
2023/09/04 00:40:21;;;;;;;3.47;1.90;;;;;;;17.52;100.00;97430.41;5038227;28;20493;-69
2023/09/04 00:42:46;;;;;;;4.40;1.67;;;;;;;17.50;100.00;97432.78;5042620;28;20045;-71
2023/09/04 00:45:12;;;;;;;3.10;1.73;;;;;;;17.52;100.00;97435.13;5036864;28;20033;-70
2023/09/04 00:47:42;;;;;;;2.58;1.75;;;;;;;17.57;100.00;97431.97;5042389;28;20132;-70
2023/09/04 00:50:10;;;;;;;5.03;2.00;;;;;;;17.52;100.00;97435.94;5039154;28;20052;-69
2023/09/04 00:52:36;;;;;;;3.05;1.90;;;;;;;17.49;100.00;97433.19;5041447;28;20397;-70
2023/09/04 00:55:05;;;;;;;5.05;2.00;;;;;;;17.50;100.00;97443.06;5038693;28;20040;-68
2023/09/04 00:57:33;;;;;;;2.80;1.77;;;;;;;17.58;100.00;97433.56;5043686;28;20492;-70
2023/09/04 01:00:02;;;;;;;3.58;2.10;;;;;;;17.58;100.00;97441.88;5058983;28;20048;-71
2023/09/04 01:02:27;;;;;;;10.02;2.60;;;;;;;17.60;100.00;97442.28;5051204;28;20175;-71
2023/09/04 01:04:53;;;;;;;4.07;1.90;;;;;;;17.54;100.00;97436.34;5063253;28;20516;-70
2023/09/04 01:07:19;;;;;;;2.92;1.98;;;;;;;17.50;100.00;97432.78;5034159;28;20047;-70
2023/09/04 01:09:44;;;;;;;3.25;1.80;;;;;;;17.55;100.00;97437.13;5044170;28;20060;-68
2023/09/04 01:12:15;;;;;;;2.85;1.58;;;;;;;17.47;100.00;97446.63;5047230;28;20548;-71
2023/09/04 01:14:44;;;;;;;4.07;2.00;;;;;;;17.48;100.00;97440.69;5061116;28;20040;-69
2023/09/04 01:17:12;;;;;;;2.90;1.77;;;;;;;17.46;100.00;97426.44;5057341;28;20044;-70
2023/09/04 01:19:38;;;;;;;2.47;1.90;;;;;;;17.43;100.00;97416.16;5065653;28;20048;-70
2023/09/04 01:22:06;;;;;;;2.65;1.90;;;;;;;17.38;100.00;97430.41;5059563;28;20045;-68
2023/09/04 01:24:31;;;;;;;3.15;2.05;;;;;;;17.35;100.00;97431.97;5060451;28;20044;-71
2023/09/04 01:27:03;;;;;;;3.28;2.10;;;;;;;17.30;100.00;97429.59;5058514;28;20041;-72
2023/09/04 01:29:50;;;;;;;4.32;2.38;;;;;;;17.35;100.00;97420.88;5040382;28;20099;-72
2023/09/04 01:32:40;;;;;;;2.80;1.95;;;;;;;17.38;100.00;97433.94;5034452;28;20144;-72
2023/09/04 01:35:09;;;;;;;4.78;1.90;;;;;;;17.36;100.00;97425.25;5015896;28;20053;-71
2023/09/04 01:37:36;;;;;;;2.63;2.10;;;;;;;17.33;100.00;97426.03;5043760;28;20041;-71
2023/09/04 01:40:04;;;;;;;3.83;2.05;;;;;;;17.31;100.00;97427.63;5042988;28;20106;-71
2023/09/04 01:42:30;;;;;;;3.13;2.13;;;;;;;17.29;100.00;97428.00;5063302;28;20131;-72
2023/09/04 01:44:55;;;;;;;3.42;2.05;;;;;;;17.26;100.00;97426.03;5053138;28;20079;-73
2023/09/04 01:47:21;;;;;;;4.53;1.90;;;;;;;17.25;100.00;97426.41;5022437;28;20056;-71
2023/09/04 01:49:47;;;;;;;2.65;2.00;;;;;;;17.26;100.00;97420.47;5042474;28;20071;-70
2023/09/04 01:52:12;;;;;;;2.65;2.00;;;;;;;17.22;100.00;97422.47;5049164;28;20044;-70
2023/09/04 01:54:38;;;;;;;3.78;2.10;;;;;;;17.20;100.00;97422.84;5059631;28;20052;-70
2023/09/04 01:57:04;;;;;;;5.18;2.20;;;;;;;17.26;100.00;97420.47;5059182;28;20044;-68
2023/09/04 01:59:29;;;;;;;3.10;1.90;;;;;;;17.21;100.00;97415.34;5044361;28;20132;-71
2023/09/04 02:01:55;;;;;;;2.78;2.08;;;;;;;17.24;100.00;97422.06;5045126;28;20132;-70
2023/09/04 02:04:20;;;;;;;3.53;2.00;;;;;;;17.19;100.00;97418.50;5052206;28;20377;-71
2023/09/04 02:06:45;;;;;;;3.92;2.20;;;;;;;17.18;100.00;97419.69;5058114;28;20044;-73
2023/09/04 02:09:11;;;;;;;2.60;1.75;;;;;;;17.18;100.00;97424.44;5057057;28;20382;-71
2023/09/04 02:11:36;;;;;;;6.68;1.95;;;;;;;17.17;100.00;97426.41;5050516;28;20156;-71
2023/09/04 02:14:02;;;;;;;3.80;2.38;;;;;;;17.10;100.00;97418.09;5057750;28;20076;-72
2023/09/04 02:16:27;;;;;;;2.90;2.17;;;;;;;17.14;100.00;97429.97;5055977;28;20052;-72
2023/09/04 02:18:55;;;;;;;3.75;2.10;;;;;;;17.13;100.00;97425.59;5047841;28;20057;-70
2023/09/04 02:21:20;;;;;;;5.57;2.22;;;;;;;17.15;100.00;97416.91;5038604;28;20107;-72
2023/09/04 02:23:46;;;;;;;4.40;2.17;;;;;;;17.14;100.00;97420.84;5061477;28;20036;-72
2023/09/04 02:26:12;;;;;;;4.32;2.25;;;;;;;17.09;100.00;97419.28;5039610;28;20075;-72
2023/09/04 02:28:38;;;;;;;3.60;2.20;;;;;;;17.10;100.00;97417.31;5049598;28;20044;-73
2023/09/04 02:31:06;;;;;;;3.55;2.05;;;;;;;17.07;100.00;97410.59;5039789;28;20045;-68
2023/09/04 02:33:31;;;;;;;3.30;2.17;;;;;;;17.06;100.00;97413.75;5048761;28;20044;-71
2023/09/04 02:35:57;;;;;;;2.95;2.15;;;;;;;17.07;100.00;97413.34;5056675;28;20387;-72
2023/09/04 02:38:22;;;;;;;2.90;2.10;;;;;;;17.04;100.00;97414.13;5034927;28;20535;-72
2023/09/04 02:40:48;;;;;;;4.47;2.15;;;;;;;17.03;100.00;97408.97;5041544;28;20048;-71
2023/09/04 02:43:13;;;;;;;3.63;2.22;;;;;;;17.04;100.00;97414.13;5038707;28;20045;-71
2023/09/04 02:45:39;;;;;;;4.97;2.10;;;;;;;17.04;100.00;97410.56;5056663;28;20424;-73
2023/09/04 02:48:05;;;;;;;3.53;2.20;;;;;;;17.02;100.00;97407.41;5057503;28;20102;-73
2023/09/04 02:50:30;;;;;;;3.63;2.33;;;;;;;16.99;100.00;97408.97;5061680;28;20544;-73
2023/09/04 02:52:56;;;;;;;4.35;2.20;;;;;;;16.99;100.00;97409.75;5062093;28;20044;-72
2023/09/04 02:55:21;;;;;;;6.57;2.45;;;;;;;16.95;100.00;97406.19;5056762;28;20512;-72
2023/09/04 02:57:47;;;;;;;3.63;2.40;;;;;;;16.93;100.00;97407.78;5049432;28;20043;-72
2023/09/04 03:00:13;;;;;;;3.22;2.25;;;;;;;16.89;100.00;97410.53;5053338;28;20044;-71
2023/09/04 03:02:38;;;;;;;3.22;2.35;;;;;;;16.84;100.00;97410.91;5059289;28;20194;-72
2023/09/04 03:05:04;;;;;;;3.38;2.30;;;;;;;16.81;100.00;97406.91;5039579;28;20049;-66
2023/09/04 03:07:30;;;;;;;4.78;2.28;;;;;;;16.84;100.00;97410.91;5039197;28;20049;-72
2023/09/04 03:09:58;;;;;;;6.20;2.35;;;;;;;16.79;100.00;97417.56;5042927;28;20032;-72
2023/09/04 03:12:25;;;;;;;4.53;2.50;;;;;;;16.79;100.00;97400.97;5048914;28;20987;-70
2023/09/04 03:15:02;;;;;;;3.17;2.40;;;;;;;16.76;100.00;97414.81;5060771;28;20426;-71
2023/09/04 03:17:30;;;;;;;3.67;2.40;;;;;;;16.76;100.00;97412.03;5051580;28;20083;-73
2023/09/04 03:19:57;;;;;;;5.22;2.60;;;;;;;16.76;100.00;97412.03;5042158;28;20103;-71
2023/09/04 03:22:23;;;;;;;3.45;2.33;;;;;;;16.82;100.00;97400.22;5044979;28;20537;-72
2023/09/04 03:24:48;;;;;;;3.25;2.22;;;;;;;16.78;100.00;97406.91;5051075;28;20037;-72
2023/09/04 03:27:14;;;;;;;4.22;2.30;;;;;;;16.79;100.00;97408.50;5034663;28;20040;-73
2023/09/04 03:29:39;;;;;;;4.15;2.45;;;;;;;16.86;100.00;97408.53;5043182;28;20051;-73
2023/09/04 03:32:06;;;;;;;4.22;2.40;;;;;;;16.80;100.00;97412.84;5034794;28;20063;-73
2023/09/04 03:34:31;;;;;;;4.35;2.72;;;;;;;16.88;100.00;97410.94;5039617;28;20040;-70
2023/09/04 03:36:57;;;;;;;4.45;2.85;;;;;;;16.85;100.00;97414.47;5047641;28;20056;-71
2023/09/04 03:39:22;;;;;;;4.53;2.35;;;;;;;16.85;100.00;97417.22;5051043;28;20135;-74
2023/09/04 03:41:48;;;;;;;5.75;2.20;;;;;;;16.81;100.00;97419.97;5043543;28;20501;-71
2023/09/04 03:44:14;;;;;;;3.42;2.10;;;;;;;16.85;100.00;97415.25;5029721;28;20048;-73
2023/09/04 03:46:40;;;;;;;8.25;2.78;;;;;;;16.72;100.00;97416.78;5058194;28;20048;-73
2023/09/04 03:49:06;;;;;;;3.58;2.60;;;;;;;16.72;100.00;97406.50;5055543;28;20040;-70
2023/09/04 03:51:32;;;;;;;2.92;2.25;;;;;;;16.76;100.00;97404.56;5040120;28;20125;-70
2023/09/04 03:54:01;;;;;;;4.05;2.50;;;;;;;16.70;100.00;97413.59;5041321;28;20180;-71
2023/09/04 03:56:31;;;;;;;3.85;2.50;;;;;;;16.75;100.00;97402.94;5035638;28;20056;-71
2023/09/04 03:58:57;;;;;;;9.35;2.50;;;;;;;16.73;100.00;97408.09;5053974;28;20044;-72
2023/09/04 04:01:23;;;;;;;4.88;2.70;;;;;;;16.76;100.00;97407.31;5049395;28;20970;-72
2023/09/04 04:03:53;;;;;;;5.28;2.35;;;;;;;16.73;100.00;97402.56;5039686;28;20044;-72
2023/09/04 04:06:18;;;;;;;7.87;2.70;;;;;;;16.70;100.00;97400.56;5051460;28;20056;-73
2023/09/04 04:08:47;;;;;;;4.82;2.78;;;;;;;16.62;100.00;97408.06;5062068;28;20041;-73
2023/09/04 04:11:12;;;;;;;4.78;2.47;;;;;;;16.68;100.00;97405.69;5054192;28;20063;-72
2023/09/04 04:13:38;;;;;;;3.55;2.30;;;;;;;16.69;100.00;97406.47;5050688;28;20056;-73
2023/09/04 04:16:04;;;;;;;5.88;2.47;;;;;;;16.61;100.00;97409.22;5056506;28;20056;-67
2023/09/04 04:18:30;;;;;;;7.18;2.78;;;;;;;16.54;100.00;97409.19;5055983;28;20406;-73
2023/09/04 04:20:57;;;;;;;4.00;2.63;;;;;;;16.63;100.00;97414.38;5040804;28;20043;-72
2023/09/04 04:23:23;;;;;;;3.45;2.50;;;;;;;16.64;100.00;97413.19;5032993;28;20531;-72
2023/09/04 04:25:49;;;;;;;5.35;2.72;;;;;;;16.66;100.00;97404.50;5044074;28;20056;-71
2023/09/04 04:28:17;;;;;;;3.28;2.10;;;;;;;16.61;100.00;97413.97;5052808;28;20044;-71
2023/09/04 04:30:42;;;;;;;4.25;2.60;;;;;;;16.61;100.00;97406.44;5060443;28;20045;-72
2023/09/04 04:33:07;;;;;;;3.50;2.40;;;;;;;16.62;100.00;97419.09;5044702;28;20059;-72
2023/09/04 04:35:33;;;;;;;3.75;2.50;;;;;;;16.53;100.00;97415.91;5046268;28;20076;-74
2023/09/04 04:37:58;;;;;;;4.30;2.83;;;;;;;16.46;100.00;97424.19;5060007;28;20134;-74
2023/09/04 04:40:24;;;;;;;3.83;2.50;;;;;;;16.32;100.00;97419.38;5053159;28;20041;-73
2023/09/04 04:42:49;;;;;;;4.10;2.75;;;;;;;16.32;100.00;97427.66;5044699;28;20064;-71
2023/09/04 04:45:15;;;;;;;4.43;2.92;;;;;;;16.28;100.00;97428.81;5051867;28;20133;-71
2023/09/04 04:47:40;;;;;;;3.95;2.42;;;;;;;16.27;100.00;97428.03;5070479;28;20401;-73
2023/09/04 04:50:08;;;;;;;4.47;2.70;;;;;;;16.24;100.00;97432.38;5043494;28;20052;-67
2023/09/04 04:52:34;;;;;;;5.57;2.88;;;;;;;16.22;100.00;97425.63;5046620;28;20493;-71
2023/09/04 04:54:59;;;;;;;3.72;2.85;;;;;;;16.21;100.00;97438.66;5048164;28;20037;-73
2023/09/04 04:57:25;;;;;;;4.18;3.00;;;;;;;16.16;100.00;97439.00;5047961;28;20067;-70
2023/09/04 04:59:51;;;;;;;3.95;2.80;;;;;;;16.11;100.00;97433.06;5045114;28;20505;-71
2023/09/04 05:02:17;;;;;;;4.28;3.03;;;;;;;16.07;100.00;97444.09;5031788;28;20041;-74
2023/09/04 05:04:45;;;;;;;4.22;3.10;;;;;;;16.01;100.00;97435.38;5042693;28;20044;-73
2023/09/04 05:07:12;;;;;;;5.50;3.28;;;;;;;16.04;100.00;97440.13;5045979;28;20044;-73
2023/09/04 05:09:37;;;;;;;4.57;3.22;;;;;;;16.08;100.00;97448.44;5053817;28;20109;-75
2023/09/04 05:12:04;;;;;;;13.60;3.70;;;;;;;16.04;100.00;97451.19;5048077;28;20049;-68
2023/09/04 05:14:29;;;;;;;4.97;3.17;;;;;;;16.07;100.00;97446.84;5036982;28;20068;-72
2023/09/04 05:16:55;;;;;;;4.35;2.80;;;;;;;16.23;100.00;97454.84;5056013;28;20087;-74
2023/09/04 05:19:21;;;;;;;5.75;2.83;;;;;;;16.38;100.00;97450.97;5056230;28;20071;-74
2023/09/04 05:21:47;;;;;;;5.25;2.80;;;;;;;16.52;100.00;97458.56;5063533;28;20075;-72
2023/09/04 05:24:12;;;;;;;4.53;3.30;;;;;;;16.70;100.00;97457.88;5058891;28;20047;-72
2023/09/04 05:26:38;;;;;;;6.18;3.20;;;;;;;16.63;100.00;97455.84;5056220;28;20049;-73
2023/09/04 05:29:03;;;;;;;4.72;3.30;;;;;;;16.67;100.00;97456.66;5054966;28;20558;-69
2023/09/04 05:31:29;;;;;;;4.18;3.10;;;;;;;16.70;100.00;97449.56;5058201;28;20059;-73
2023/09/04 05:33:54;;;;;;;4.53;2.95;;;;;;;16.94;100.00;97457.19;5062882;28;20044;-72
2023/09/04 05:36:19;;;;;;;3.80;2.85;;;;;;;17.08;100.00;97459.19;5053825;28;20072;-71
2023/09/04 05:38:46;;;;;;;7.97;3.38;;;;;;;17.38;100.00;97447.81;5062173;28;20497;-71
2023/09/04 05:41:12;;;;;;;5.38;2.90;;;;;;;17.37;100.00;97454.50;5050124;28;20273;-71
2023/09/04 05:43:38;;;;;;;5.97;3.10;;;;;;;17.51;100.00;97447.41;5038985;28;20041;-69
2023/09/04 05:46:04;;;;;;;5.60;3.15;;;;;;;17.67;100.00;97455.34;5056158;28;20417;-68
2023/09/04 05:48:31;;;;;;;4.25;2.90;;;;;;;17.82;100.00;97447.81;5047847;28;20049;-71
2023/09/04 05:50:57;;;;;;;5.43;2.90;;;;;;;17.80;100.00;97456.53;5041211;28;20075;-70
2023/09/04 05:53:24;;;;;;;6.15;3.88;;;;;;;17.76;100.00;97450.19;5036685;28;20727;-73
2023/09/04 05:56:03;;;;;;;6.65;3.53;;;;;;;17.68;100.00;97451.38;5061903;28;20125;-74
2023/09/04 05:58:29;;;;;;;5.07;2.83;;;;;;;17.46;100.00;97459.66;5053937;28;20075;-74
2023/09/04 06:00:55;;;;;;;4.00;2.55;;;;;;;17.88;100.00;97463.69;5060145;28;20048;-74
2023/09/04 06:03:20;;;;;;;4.00;3.10;;;;;;;17.63;100.00;97463.66;5049497;28;20073;-71
2023/09/04 06:05:46;;;;;;;4.32;3.00;;;;;;;17.53;100.00;97445.81;5039182;28;20041;-70
2023/09/04 06:08:11;;;;;;;4.28;3.03;;;;;;;18.00;100.00;97458.94;5053461;28;20048;-72
2023/09/04 06:10:37;;;;;;;10.23;5.45;;;;;;;17.98;100.00;97464.06;5056247;28;20052;-72
2023/09/04 06:13:02;;;;;;;3.85;2.90;;;;;;;17.86;100.00;97460.53;5050941;28;20059;-69
2023/09/04 06:15:27;;;;;;;4.68;2.80;;;;;;;18.07;100.00;97464.47;5049081;28;20052;-73
2023/09/04 06:17:53;;;;;;;4.22;3.40;;;;;;;18.08;100.00;97460.50;5061439;28;20071;-70
2023/09/04 06:20:18;;;;;;;7.18;3.05;;;;;;;18.10;100.00;97464.47;5052173;28;20113;-71
2023/09/04 06:22:44;;;;;;;4.32;3.20;;;;;;;18.91;100.00;97464.66;5061468;28;20051;-71
2023/09/04 06:25:09;;;;;;;4.97;3.20;;;;;;;18.84;100.00;97469.44;5057134;28;20102;-72
2023/09/04 06:27:35;;;;;;;6.70;3.50;;;;;;;18.67;100.00;97468.28;5051654;28;20047;-71
2023/09/04 06:30:00;;;;;;;4.00;3.20;;;;;;;18.73;100.00;97466.69;5045116;28;20059;-72
2023/09/04 06:32:25;;;;;;;5.60;3.25;;;;;;;19.35;100.00;97467.97;5051374;28;20482;-72
2023/09/04 06:34:51;;;;;;;4.50;2.67;;;;;;;19.13;100.00;97466.53;5063125;28;20040;-72
2023/09/04 06:37:16;;;;;;;6.15;3.45;;;;;;;18.66;100.00;97461.16;5057205;28;20072;-72
2023/09/04 06:39:41;;;;;;;5.68;3.13;;;;;;;18.76;100.00;97468.63;5057908;28;20044;-71
2023/09/04 06:42:07;;;;;;;5.85;3.10;;;;;;;18.48;100.00;97470.31;5054015;28;20409;-68
2023/09/04 06:44:32;;;;;;;5.28;3.55;;;;;;;18.66;100.00;97461.16;5056976;28;20048;-72
2023/09/04 06:46:58;;;;;;;5.40;3.15;;;;;;;18.86;100.00;97467.84;5062740;28;20056;-71
2023/09/04 06:49:23;;;;;;;7.18;3.38;;;;;;;18.82;100.00;97471.84;5049277;28;20036;-72
2023/09/04 06:51:48;;;;;;;4.40;2.92;;;;;;;19.09;100.00;97475.66;5055359;28;20087;-73
2023/09/04 06:54:14;;;;;;;4.68;3.10;;;;;;;19.16;100.00;97488.72;5039074;28;20147;-72
2023/09/04 06:56:39;;;;;;;5.32;3.00;;;;;;;19.73;100.00;97479.25;5042450;28;20068;-74
2023/09/04 06:59:05;;;;;;;4.43;2.80;;;;;;;19.61;100.00;97476.97;5036384;28;20054;-70
2023/09/04 07:01:30;;;;;;;5.55;2.55;;;;;;;19.67;100.00;97484.44;5025671;28;20078;-73
2023/09/04 07:03:56;;;;;;;4.82;2.92;;;;;;;19.74;100.00;97482.84;5036580;28;20044;-71
2023/09/04 07:06:21;;;;;;;2.92;2.47;;;;;;;19.64;100.00;97471.38;5056765;28;20367;-72
2023/09/04 07:08:46;;;;;;;4.55;2.75;;;;;;;19.92;100.00;97477.16;5059045;28;20100;-72
2023/09/04 07:11:12;;;;;;;4.35;2.60;;;;;;;20.72;96.32;97481.53;5047673;28;20037;-73
2023/09/04 07:13:37;;;;;;;5.65;2.40;;;;;;;20.48;98.90;97479.81;5049525;28;20041;-71
2023/09/04 07:16:03;;;;;;;3.13;2.17;;;;;;;20.24;97.26;97486.00;5038229;28;20041;-71
2023/09/04 07:18:28;;;;;;;4.68;2.65;;;;;;;20.12;96.76;97482.94;5040204;28;20250;-73
2023/09/04 07:20:53;;;;;;;5.15;2.85;;;;;;;20.50;96.86;97482.97;5058253;28;20040;-73
2023/09/04 07:23:20;;;;;;;4.80;2.67;;;;;;;20.55;97.61;97477.72;5038841;28;20185;-72
2023/09/04 07:25:45;;;;;;;5.40;2.42;;;;;;;21.12;94.06;97476.28;5037909;28;20064;-72
2023/09/04 07:28:11;;;;;;;5.55;2.72;;;;;;;20.41;95.59;97480.66;5033383;28;20068;-74
2023/09/04 07:30:36;;;;;;;5.75;2.53;;;;;;;20.82;95.22;97465.94;5040715;28;20177;-73
2023/09/04 07:33:02;;;;;;;4.35;2.22;;;;;;;21.57;91.61;97475.28;5039456;28;20549;-70
2023/09/04 07:35:28;;;;;;;7.00;2.50;;;;;;;22.36;84.90;97467.63;5032226;28;20915;-71
2023/09/04 07:37:54;;;;;;;5.65;2.20;;;;;;;21.39;91.99;97473.53;5038187;28;20045;-72
2023/09/04 07:40:19;;;;;;;4.43;2.00;;;;;;;21.81;89.90;97476.13;5032674;28;20106;-71
2023/09/04 07:42:46;;;;;;;4.28;2.58;;;;;;;20.99;92.32;97469.69;5041256;28;20048;-72
2023/09/04 07:45:11;;;;;;;3.15;2.30;;;;;;;21.48;90.11;97472.22;5037938;28;20033;-73
2023/09/04 07:47:36;;;;;;;2.90;2.03;;;;;;;21.15;90.66;97475.44;5039536;28;20394;-72
2023/09/04 07:50:03;;;;;;;4.55;2.10;;;;;;;21.27;92.62;97476.09;5037054;28;20041;-68
2023/09/04 07:52:28;;;;;;;8.70;2.60;;;;;;;20.91;94.03;97479.34;5038427;28;20045;-70
2023/09/04 07:54:54;;;;;;;7.50;2.47;;;;;;;21.34;92.81;97473.22;5047132;28;20056;-71
2023/09/04 07:57:19;;;;;;;3.80;2.50;;;;;;;21.00;94.40;97477.63;5039902;28;20064;-74
2023/09/04 07:59:44;;;;;;;5.32;2.50;;;;;;;21.22;92.18;97477.34;5036404;28;20417;-74
2023/09/04 08:02:10;;;;;;;6.60;2.42;;;;;;;21.48;90.05;97469.44;5031089;28;20072;-73
2023/09/04 08:04:37;;;;;;;9.07;2.50;;;;;;;21.96;91.61;97468.28;5039591;28;20037;-73
2023/09/04 08:07:03;;;;;;;5.38;3.65;;;;;;;22.25;86.50;97467.81;5039788;28;20045;-70
2023/09/04 08:09:29;;;;;;;6.40;3.83;;;;;;;21.48;90.58;97466.66;5036244;28;20436;-71
2023/09/04 08:11:54;;;;;;;3.13;2.35;;;;;;;21.90;89.68;97472.78;5047598;28;20044;-73
2023/09/04 08:14:19;;;;;;;4.22;2.22;;;;;;;23.04;83.31;97475.50;5037055;28;20067;-71
2023/09/04 08:16:45;;;;;;;3.95;2.25;;;;;;;22.50;84.43;97476.53;5051738;28;20056;-71
2023/09/04 08:19:10;;;;;;;4.07;2.08;;;;;;;23.33;83.13;97476.91;5040846;28;20094;-72
2023/09/04 08:21:36;;;;;;;3.80;2.05;;;;;;;23.16;82.63;97474.06;5042474;28;20076;-72
2023/09/04 08:24:01;;;;;;;6.10;2.20;;;;;;;22.89;81.92;97474.19;5044243;28;20079;-70
2023/09/04 08:26:29;;;;;;;4.75;2.42;;;;;;;22.05;87.23;97460.16;5038485;28;20041;-71
2023/09/04 08:28:55;;;;;;;2.80;1.80;;;;;;;22.67;84.69;97469.03;5042217;28;20417;-72
2023/09/04 08:31:20;;;;;;;3.55;2.13;;;;;;;22.33;86.28;97458.91;5038667;28;20052;-70
2023/09/04 08:33:46;;;;;;;3.63;1.90;;;;;;;22.57;85.34;97463.66;5037653;28;20091;-73
2023/09/04 08:36:11;;;;;;;7.40;4.50;;;;;;;22.62;84.34;97458.38;5037376;28;20136;-72
2023/09/04 08:38:37;;;;;;;4.43;2.53;;;;;;;22.39;85.14;97455.63;5040933;28;20526;-72
2023/09/04 08:41:07;;;;;;;5.88;2.50;;;;;;;22.73;85.56;97462.97;5037504;28;20043;-68
2023/09/04 08:43:34;;;;;;;5.10;2.88;;;;;;;23.51;80.11;97457.69;5037242;28;20410;-70
2023/09/04 08:46:02;;;;;;;3.38;2.15;;;;;;;23.93;77.29;97460.75;5042867;28;20037;-71
2023/09/04 08:48:31;;;;;;;3.13;1.70;;;;;;;22.53;81.34;97458.16;5033471;28;20556;-70
2023/09/04 08:50:57;;;;;;;2.80;1.97;;;;;;;22.81;81.31;97456.00;5048888;28;20118;-70
2023/09/04 08:53:23;;;;;;;3.40;1.92;;;;;;;23.46;80.56;97449.81;5058103;28;20381;-71
2023/09/04 08:55:50;;;;;;;2.50;1.83;;;;;;;23.34;77.33;97461.72;5061052;28;20131;-71
2023/09/04 08:58:16;;;;;;;4.00;1.90;;;;;;;23.51;77.82;97452.09;5045206;28;20056;-72
2023/09/04 09:00:43;;;;;;;4.93;2.10;;;;;;;22.64;80.39;97453.13;5044005;28;20490;-71
2023/09/04 09:03:10;;;;;;;4.13;2.00;;;;;;;22.78;79.32;97448.47;5037664;28;20183;-71
2023/09/04 09:05:36;;;;;;;5.18;2.30;;;;;;;23.14;79.79;97456.94;5043703;28;20124;-72
2023/09/04 09:08:04;;;;;;;5.88;2.10;;;;;;;24.17;75.93;97452.16;5042267;28;20044;-67
2023/09/04 09:10:30;;;;;;;3.55;1.83;;;;;;;23.81;72.86;97456.63;5038109;28;20389;-73
2023/09/04 09:12:55;;;;;;;4.72;1.88;;;;;;;24.11;74.01;97459.47;5055143;28;20040;-72
2023/09/04 09:15:21;;;;;;;7.10;1.75;;;;;;;24.64;69.45;97459.34;5041348;28;20059;-71
2023/09/04 09:17:53;;;;;;;3.03;1.75;;;;;;;24.12;71.47;97455.47;5035721;28;20053;-72
2023/09/04 09:20:44;;;;;;;4.15;1.80;;;;;;;24.15;71.07;97451.81;5032764;28;20060;-70
2023/09/04 09:23:10;;;;;;;2.45;1.73;;;;;;;24.56;72.07;97455.91;5035232;28;20036;-71
2023/09/04 09:25:37;;;;;;;2.35;1.50;;;;;;;24.74;69.78;97452.63;5043613;28;20060;-70
2023/09/04 09:28:05;;;;;;;4.75;1.75;;;;;;;25.83;66.07;97454.56;5040778;28;20079;-67
2023/09/04 09:30:38;;;;;;;6.05;1.50;;;;;;;25.15;62.71;97457.44;5042579;28;20136;-72
2023/09/04 09:33:12;;;;;;;2.25;1.33;;;;;;;24.96;61.94;97447.22;5033739;28;20056;-68
2023/09/04 09:35:40;;;;;;;3.00;1.48;;;;;;;24.58;59.49;97448.66;5038695;28;20064;-72
2023/09/04 09:38:05;;;;;;;1.73;1.27;;;;;;;24.33;60.97;97440.16;5039168;28;20575;-71
2023/09/04 09:40:31;;;;;;;2.22;1.38;;;;;;;25.25;57.51;97446.41;5040733;28;20124;-72
2023/09/04 09:42:59;;;;;;;1.65;1.25;;;;;;;24.63;56.97;97447.31;5037369;28;20039;-72
2023/09/04 09:45:24;;;;;;;2.90;1.90;;;;;;;25.03;54.99;97455.41;5029848;28;20739;-72
2023/09/04 09:47:51;;;;;;;4.57;2.58;;;;;;;24.31;59.44;97451.78;5043216;28;20051;-72
2023/09/04 09:50:18;;;;;;;4.03;1.67;;;;;;;24.57;55.65;97454.72;5030361;28;20041;-72
2023/09/04 09:53:00;;;;;;;5.47;1.75;;;;;;;25.08;55.73;97440.03;5038780;28;20045;-71
2023/09/04 09:55:28;;;;;;;6.78;1.90;;;;;;;24.97;56.78;97429.97;5032634;28;20458;-73
2023/09/04 09:57:55;;;;;;;3.72;1.48;;;;;;;25.37;56.71;97423.16;5041912;28;20052;-73
2023/09/04 10:00:20;;;;;;;2.65;1.40;;;;;;;24.97;55.33;97431.97;5037921;28;20048;-71
2023/09/04 10:02:47;;;;;;;6.70;1.30;;;;;;;24.52;54.25;97425.19;5038386;28;20351;-73
2023/09/04 10:05:12;;;;;;;3.55;1.17;;;;;;;24.87;55.61;97428.25;5034455;28;20120;-67
2023/09/04 10:07:38;;;;;;;3.28;1.63;;;;;;;25.12;54.97;97430.31;5041087;28;20552;-72
2023/09/04 10:10:06;;;;;;;3.80;1.80;;;;;;;25.54;52.77;97421.81;5043439;28;20053;-67
2023/09/04 10:12:38;;;;;;;1.90;1.30;;;;;;;24.77;53.97;97429.34;5042390;28;20113;-69
2023/09/04 10:15:06;;;;;;;2.50;1.50;;;;;;;24.98;53.05;97430.75;5050137;28;20139;-71
2023/09/04 10:17:40;;;;;;;2.15;1.50;;;;;;;24.87;58.99;97419.84;5048001;28;20090;-70
2023/09/04 10:20:06;;;;;;;3.85;1.70;;;;;;;25.54;57.15;97421.81;5041263;28;20041;-70
2023/09/04 10:22:43;;;;;;;3.90;1.85;;;;;;;25.86;55.73;97413.59;5039048;28;20167;-70
2023/09/04 10:25:35;;;;;;;3.58;1.80;;;;;;;26.37;55.75;97416.28;5044645;28;20029;-70
2023/09/04 10:28:11;;;;;;;2.17;1.13;;;;;;;26.48;54.66;97404.66;5040030;28;20041;-70
2023/09/04 10:30:41;;;;;;;5.53;1.33;;;;;;;26.17;54.32;97402.53;5038417;28;20053;-70
2023/09/04 10:33:07;;;;;;;2.38;1.42;;;;;;;26.32;55.91;97403.59;5038106;28;20151;-70
2023/09/04 10:35:33;;;;;;;4.18;1.55;;;;;;;25.90;55.56;97389.00;5038371;28;20075;-69
2023/09/04 10:37:59;;;;;;;3.00;1.63;;;;;;;25.67;56.37;97390.19;5042892;28;20045;-71
2023/09/04 10:40:26;;;;;;;1.77;1.25;;;;;;;25.20;58.19;97386.03;5028962;28;20406;-70
2023/09/04 10:42:52;;;;;;;2.33;1.45;;;;;;;25.32;57.26;97374.06;5044399;28;20051;-70
2023/09/04 10:45:20;;;;;;;3.83;1.70;;;;;;;25.45;57.10;97373.28;5056150;28;20037;-71
2023/09/04 10:47:49;;;;;;;3.05;1.50;;;;;;;26.29;55.58;97375.66;5047073;28;20135;-71
2023/09/04 10:50:30;;;;;;;3.55;1.50;;;;;;;26.06;56.41;97379.69;5034192;28;20048;-71
2023/09/04 10:52:58;;;;;;;2.60;1.75;;;;;;;25.92;56.95;97366.88;5039554;28;20051;-72
2023/09/04 10:55:26;;;;;;;2.83;1.42;;;;;;;26.27;56.00;97364.09;5030792;28;20059;-69
2023/09/04 10:57:54;;;;;;;9.20;1.77;;;;;;;26.28;56.05;97360.03;5046941;28;20123;-72
2023/09/04 11:00:28;;;;;;;3.03;1.30;;;;;;;26.39;55.07;97368.09;5058276;28;20052;-71
2023/09/04 11:02:54;;;;;;;3.40;1.20;;;;;;;26.79;55.32;97359.00;5040525;28;20049;-71
2023/09/04 11:05:19;;;;;;;2.85;1.65;;;;;;;26.34;54.47;97361.00;5033792;28;20394;-72
2023/09/04 11:07:45;;;;;;;5.15;1.40;;;;;;;26.03;55.08;97353.28;5048544;28;20045;-71
2023/09/04 11:10:10;;;;;;;2.15;1.30;;;;;;;26.12;55.78;97347.75;5051666;28;20090;-71
2023/09/04 11:12:37;;;;;;;2.63;1.45;;;;;;;26.10;54.28;97350.22;5060017;28;20398;-71
2023/09/04 11:15:11;;;;;;;4.97;1.90;;;;;;;26.86;50.33;97353.88;5050372;28;20089;-73
2023/09/04 11:17:40;;;;;;;3.33;1.83;;;;;;;26.12;52.72;97347.75;5049433;28;20102;-72
2023/09/04 11:20:06;;;;;;;2.20;1.50;;;;;;;26.00;51.87;97351.41;5052078;28;20051;-72
2023/09/04 11:22:33;;;;;;;3.53;1.70;;;;;;;26.08;52.30;97346.31;5038240;28;20044;-72
2023/09/04 11:24:59;;;;;;;3.72;1.85;;;;;;;26.55;50.90;97339.78;5039894;28;20045;-72
2023/09/04 11:27:25;;;;;;;6.18;1.65;;;;;;;25.97;52.38;97338.28;5036987;28;20110;-71